Time;durP1;ratioP1;P1;durP2;ratioP2;P2;SDS_P1;SDS_P2;PMS_P1;PMS_P2;Temp;Humidity;BMP_temperature;BMP_pressure;BME280_temperature;BME280_humidity;BME280_pressure;Samples;Min_cycle;Max_cycle;Signal;HPM_P1;HPM_P2
2020/12/06 00:00:09;;;;;;;46.43;28.57;;;;;;;;;;5034685;28;20196;-76
2020/12/06 00:02:34;;;;;;;44.17;26.93;;;;;;;;;;5053719;28;20267;-79
2020/12/06 00:04:59;;;;;;;55.23;33.03;;;;;;;;;;5037452;28;20202;-79
2020/12/06 00:07:25;;;;;;;47.03;28.90;;;;;;;;;;5037563;28;20218;-79
2020/12/06 00:09:50;;;;;;;43.43;26.03;;;;;;;;;;5034821;28;20588;-79
2020/12/06 00:12:15;;;;;;;49.90;30.53;;;;;;;;;;5034520;28;20183;-79
2020/12/06 00:14:40;;;;;;;48.17;29.07;;;;;;;;;;5034505;28;20196;-79
2020/12/06 00:17:06;;;;;;;41.73;26.80;;;;;;;;;;5034074;28;20631;-79
2020/12/06 00:19:31;;;;;;;56.20;34.50;;;;;;;;;;5034395;28;20204;-79
2020/12/06 00:21:56;;;;;;;50.13;29.77;;;;;;;;;;5033810;28;20565;-79
2020/12/06 00:24:22;;;;;;;44.10;25.77;;;;;;;;;;5032854;28;20177;-79
2020/12/06 00:26:47;;;;;;;51.60;31.47;;;;;;;;;;5033950;28;20294;-80
2020/12/06 00:29:13;;;;;;;45.43;29.03;;;;;;;;;;5034062;28;20677;-79
2020/12/06 00:31:38;;;;;;;47.00;29.17;;;;;;;;;;5033927;28;20187;-79
2020/12/06 00:34:03;;;;;;;42.30;27.63;;;;;;;;;;5033672;28;20178;-79
2020/12/06 00:36:28;;;;;;;42.77;26.20;;;;;;;;;;5033625;28;20172;-79
2020/12/06 00:38:54;;;;;;;43.83;27.57;;;;;;;;;;5033640;28;20169;-79
2020/12/06 00:41:19;;;;;;;39.33;25.43;;;;;;;;;;5034393;28;20304;-79
2020/12/06 00:43:45;;;;;;;45.27;26.57;;;;;;;;;;5033805;28;20622;-79
2020/12/06 00:46:10;;;;;;;44.90;26.90;;;;;;;;;;5033289;28;20233;-79
2020/12/06 00:48:36;;;;;;;45.57;27.00;;;;;;;;;;5033784;28;20223;-79
2020/12/06 00:51:01;;;;;;;42.27;25.93;;;;;;;;;;5033971;28;20353;-80
2020/12/06 00:53:26;;;;;;;40.40;25.57;;;;;;;;;;5033718;28;20165;-79
2020/12/06 00:55:52;;;;;;;41.47;26.67;;;;;;;;;;5033413;28;20176;-79
2020/12/06 00:58:17;;;;;;;41.10;26.20;;;;;;;;;;5033837;28;20274;-79
2020/12/06 01:00:43;;;;;;;43.20;25.93;;;;;;;;;;5033649;28;20254;-79
2020/12/06 01:03:08;;;;;;;42.53;27.27;;;;;;;;;;5033639;28;20172;-79
2020/12/06 01:05:33;;;;;;;40.73;27.10;;;;;;;;;;5033326;28;20168;-79
2020/12/06 01:07:58;;;;;;;44.17;26.97;;;;;;;;;;5033863;28;20251;-79
2020/12/06 01:10:25;;;;;;;42.70;25.20;;;;;;;;;;5033644;28;20174;-79
2020/12/06 01:12:50;;;;;;;40.50;24.87;;;;;;;;;;5035737;28;20257;-80
2020/12/06 01:15:16;;;;;;;38.87;25.37;;;;;;;;;;5037514;28;20518;-80
2020/12/06 01:17:41;;;;;;;40.97;24.20;;;;;;;;;;5037548;28;20173;-80
2020/12/06 01:20:07;;;;;;;45.73;26.13;;;;;;;;;;5037102;28;20290;-80
2020/12/06 01:22:33;;;;;;;43.00;24.00;;;;;;;;;;5037922;28;20190;-79
2020/12/06 01:24:58;;;;;;;42.07;26.53;;;;;;;;;;5037315;28;20179;-79
2020/12/06 01:27:23;;;;;;;42.07;27.53;;;;;;;;;;5036947;28;20193;-79
2020/12/06 01:29:48;;;;;;;41.53;26.83;;;;;;;;;;5037279;28;20168;-79
2020/12/06 01:32:14;;;;;;;41.70;26.00;;;;;;;;;;5037100;28;20168;-79
2020/12/06 01:34:39;;;;;;;43.67;26.03;;;;;;;;;;5037317;28;20176;-79
2020/12/06 01:37:04;;;;;;;45.43;26.90;;;;;;;;;;5036981;28;20225;-80
2020/12/06 01:39:30;;;;;;;45.20;27.33;;;;;;;;;;5036915;28;20523;-80
2020/12/06 01:41:56;;;;;;;40.17;25.77;;;;;;;;;;5037215;28;20559;-80
2020/12/06 01:44:22;;;;;;;41.90;26.23;;;;;;;;;;5036755;28;20179;-80
2020/12/06 01:46:48;;;;;;;42.40;25.23;;;;;;;;;;5037245;28;20283;-80
2020/12/06 01:49:13;;;;;;;45.57;27.30;;;;;;;;;;5036690;28;20582;-80
2020/12/06 01:51:39;;;;;;;44.13;26.17;;;;;;;;;;5037159;28;20172;-79
2020/12/06 01:54:04;;;;;;;40.00;25.60;;;;;;;;;;5036543;28;20176;-79
2020/12/06 01:56:29;;;;;;;39.50;25.13;;;;;;;;;;5036501;28;20264;-79
2020/12/06 01:58:55;;;;;;;40.73;24.67;;;;;;;;;;5037290;28;20228;-79
2020/12/06 02:01:20;;;;;;;40.20;25.60;;;;;;;;;;5036621;28;20273;-79
2020/12/06 02:03:45;;;;;;;44.57;27.00;;;;;;;;;;5036921;28;20176;-79
2020/12/06 02:06:11;;;;;;;39.50;23.67;;;;;;;;;;5036875;28;20180;-79
2020/12/06 02:08:36;;;;;;;38.53;24.77;;;;;;;;;;5036822;28;20210;-79
2020/12/06 02:11:02;;;;;;;43.43;26.07;;;;;;;;;;5036547;28;20176;-79
2020/12/06 02:13:27;;;;;;;40.90;25.33;;;;;;;;;;5036566;28;20195;-79
2020/12/06 02:15:54;;;;;;;41.87;25.23;;;;;;;;;;5036166;28;20169;-79
2020/12/06 02:18:20;;;;;;;35.20;22.50;;;;;;;;;;5036752;28;20180;-79
2020/12/06 02:20:45;;;;;;;46.83;25.63;;;;;;;;;;5036258;28;20200;-79
2020/12/06 02:23:10;;;;;;;41.93;25.10;;;;;;;;;;5035608;28;20627;-79
2020/12/06 02:25:36;;;;;;;40.10;25.77;;;;;;;;;;5036194;28;20195;-80
2020/12/06 02:28:02;;;;;;;42.90;24.33;;;;;;;;;;5035935;28;20255;-79
2020/12/06 02:30:28;;;;;;;39.00;25.63;;;;;;;;;;5036228;28;20612;-79
2020/12/06 02:32:53;;;;;;;39.90;24.77;;;;;;;;;;5035873;28;20223;-79
2020/12/06 02:35:18;;;;;;;31.00;18.93;;;;;;;;;;5036339;28;20264;-79
2020/12/06 02:37:43;;;;;;;41.47;24.83;;;;;;;;;;5035771;28;20176;-79
2020/12/06 02:40:09;;;;;;;38.40;24.37;;;;;;;;;;5035766;28;20270;-79
2020/12/06 02:42:34;;;;;;;43.67;24.93;;;;;;;;;;5035665;28;20629;-79
2020/12/06 02:44:59;;;;;;;41.30;26.03;;;;;;;;;;5036452;28;20165;-79
2020/12/06 02:47:24;;;;;;;43.87;25.83;;;;;;;;;;5036512;28;20271;-80
2020/12/06 02:49:50;;;;;;;40.87;24.47;;;;;;;;;;5035964;28;20180;-79
2020/12/06 02:52:15;;;;;;;41.87;24.13;;;;;;;;;;5036254;28;20169;-79
2020/12/06 02:54:40;;;;;;;41.30;25.83;;;;;;;;;;5036307;28;20169;-79
2020/12/06 02:57:06;;;;;;;40.03;24.30;;;;;;;;;;5035580;28;20717;-79
2020/12/06 02:59:31;;;;;;;42.33;25.50;;;;;;;;;;5036031;28;20628;-79
2020/12/06 03:01:56;;;;;;;43.93;26.57;;;;;;;;;;5035991;28;20200;-79
2020/12/06 03:04:22;;;;;;;40.43;23.50;;;;;;;;;;5035414;28;20206;-79
2020/12/06 03:06:47;;;;;;;43.90;25.97;;;;;;;;;;5036303;28;20207;-79
2020/12/06 03:09:12;;;;;;;44.03;27.10;;;;;;;;;;5035241;28;20175;-79
2020/12/06 03:11:39;;;;;;;46.53;25.57;;;;;;;;;;5035115;28;20177;-79
2020/12/06 03:14:04;;;;;;;45.20;25.93;;;;;;;;;;5035413;28;20175;-79
2020/12/06 03:16:30;;;;;;;43.10;25.13;;;;;;;;;;5035318;28;20578;-79
2020/12/06 03:18:55;;;;;;;42.60;24.30;;;;;;;;;;5035322;28;20165;-79
2020/12/06 03:21:20;;;;;;;42.23;24.57;;;;;;;;;;5034884;28;20204;-79
2020/12/06 03:23:46;;;;;;;42.83;25.00;;;;;;;;;;5034833;28;20219;-79
2020/12/06 03:26:11;;;;;;;43.83;25.43;;;;;;;;;;5035570;28;20200;-80
2020/12/06 03:28:36;;;;;;;44.37;25.00;;;;;;;;;;5035070;28;20207;-79
2020/12/06 03:31:01;;;;;;;43.97;24.80;;;;;;;;;;5033789;28;20187;-79
2020/12/06 03:33:27;;;;;;;43.20;26.20;;;;;;;;;;5034698;28;20543;-79
2020/12/06 03:35:52;;;;;;;40.33;23.13;;;;;;;;;;5034080;28;20176;-79
2020/12/06 03:38:17;;;;;;;44.60;26.30;;;;;;;;;;5034537;28;20169;-79
2020/12/06 03:40:42;;;;;;;44.27;24.47;;;;;;;;;;5035079;28;20197;-79
2020/12/06 03:43:08;;;;;;;45.30;25.77;;;;;;;;;;5034838;28;20270;-79
2020/12/06 03:45:33;;;;;;;44.37;25.93;;;;;;;;;;5034546;28;20582;-79
2020/12/06 03:47:58;;;;;;;43.93;26.27;;;;;;;;;;5034444;28;20168;-79
2020/12/06 03:50:24;;;;;;;45.67;26.90;;;;;;;;;;5033462;28;20176;-79
2020/12/06 03:52:49;;;;;;;50.33;27.70;;;;;;;;;;5034303;28;20172;-79
2020/12/06 03:55:15;;;;;;;47.00;26.00;;;;;;;;;;5034621;28;20255;-79
2020/12/06 03:57:40;;;;;;;43.20;25.70;;;;;;;;;;5034194;28;20574;-79
2020/12/06 04:00:06;;;;;;;41.53;24.67;;;;;;;;;;5034177;28;20699;-80
2020/12/06 04:02:31;;;;;;;45.17;25.53;;;;;;;;;;5034701;28;20168;-80
2020/12/06 04:04:56;;;;;;;46.20;24.80;;;;;;;;;;5034447;28;20614;-80
2020/12/06 04:07:22;;;;;;;48.47;26.83;;;;;;;;;;5034403;28;20172;-80
2020/12/06 04:09:47;;;;;;;47.73;28.10;;;;;;;;;;5034598;28;20626;-80
2020/12/06 04:12:12;;;;;;;40.63;24.77;;;;;;;;;;5034274;28;20199;-79
2020/12/06 04:14:38;;;;;;;35.77;21.03;;;;;;;;;;5034298;28;20329;-80
2020/12/06 04:17:03;;;;;;;35.67;22.50;;;;;;;;;;5034004;28;20169;-80
2020/12/06 04:19:28;;;;;;;40.57;24.93;;;;;;;;;;5034582;28;20236;-79
2020/12/06 04:21:53;;;;;;;41.83;23.23;;;;;;;;;;5034453;28;20286;-80
2020/12/06 04:24:19;;;;;;;35.17;22.43;;;;;;;;;;5034470;28;20175;-79
2020/12/06 04:26:44;;;;;;;40.23;22.07;;;;;;;;;;5033948;28;20288;-80
2020/12/06 04:29:09;;;;;;;37.83;21.67;;;;;;;;;;5032869;28;20173;-79
2020/12/06 04:31:35;;;;;;;41.13;25.70;;;;;;;;;;5034627;28;20204;-79
2020/12/06 04:34:00;;;;;;;38.43;25.03;;;;;;;;;;5034390;28;20175;-79
2020/12/06 04:36:25;;;;;;;42.10;25.50;;;;;;;;;;5034011;28;20616;-79
2020/12/06 04:38:50;;;;;;;40.07;24.17;;;;;;;;;;5034294;28;20218;-79
2020/12/06 04:41:16;;;;;;;37.83;23.00;;;;;;;;;;5034119;28;20199;-79
2020/12/06 04:43:43;;;;;;;46.00;25.23;;;;;;;;;;5034020;28;20184;-79
2020/12/06 04:46:08;;;;;;;35.67;23.30;;;;;;;;;;5033206;28;20499;-79
2020/12/06 04:48:37;;;;;;;35.50;21.70;;;;;;;;;;5033442;28;20168;-80
2020/12/06 04:51:04;;;;;;;36.73;23.83;;;;;;;;;;5033541;28;20230;-80
2020/12/06 04:53:34;;;;;;;35.47;23.77;;;;;;;;;;5033768;28;20230;-79
2020/12/06 04:56:01;;;;;;;33.27;21.77;;;;;;;;;;5033444;28;20220;-80
2020/12/06 04:58:28;;;;;;;36.73;23.37;;;;;;;;;;5033805;28;20566;-80
2020/12/06 05:00:53;;;;;;;33.03;22.43;;;;;;;;;;5033622;28;20196;-79
2020/12/06 05:03:21;;;;;;;37.27;23.50;;;;;;;;;;5033748;28;20230;-79
2020/12/06 05:05:48;;;;;;;36.50;24.47;;;;;;;;;;5033617;28;20226;-79
2020/12/06 05:08:13;;;;;;;35.13;23.33;;;;;;;;;;5033354;28;20218;-79
2020/12/06 05:10:39;;;;;;;33.77;23.67;;;;;;;;;;5033557;28;20176;-79
2020/12/06 05:13:05;;;;;;;34.10;22.73;;;;;;;;;;5032232;28;20215;-80
2020/12/06 05:15:31;;;;;;;32.93;22.90;;;;;;;;;;5033817;28;20200;-80
2020/12/06 05:17:57;;;;;;;36.97;24.17;;;;;;;;;;5033546;28;20207;-79
2020/12/06 05:20:22;;;;;;;30.87;21.83;;;;;;;;;;5033192;28;20200;-80
2020/12/06 05:22:48;;;;;;;33.37;22.27;;;;;;;;;;5033431;28;20199;-80
2020/12/06 05:25:13;;;;;;;34.00;23.13;;;;;;;;;;5034214;28;20176;-79
2020/12/06 05:27:39;;;;;;;35.93;25.07;;;;;;;;;;5033680;28;20542;-79
2020/12/06 05:30:04;;;;;;;32.10;22.27;;;;;;;;;;5033351;28;20282;-79
2020/12/06 05:32:29;;;;;;;34.60;23.67;;;;;;;;;;5033216;28;20165;-79
2020/12/06 05:34:55;;;;;;;31.60;22.97;;;;;;;;;;5033677;28;20531;-80
2020/12/06 05:37:20;;;;;;;32.17;21.97;;;;;;;;;;5033103;28;20204;-79
2020/12/06 05:39:45;;;;;;;35.63;23.30;;;;;;;;;;5033406;28;20564;-79
2020/12/06 05:42:11;;;;;;;33.30;22.43;;;;;;;;;;5032993;28;20219;-79
2020/12/06 05:44:36;;;;;;;33.23;23.00;;;;;;;;;;5033851;28;20267;-79
2020/12/06 05:47:11;;;;;;;36.30;24.60;;;;;;;;;;5033006;28;20236;-79
2020/12/06 05:49:37;;;;;;;37.40;23.47;;;;;;;;;;5033270;28;20609;-79
2020/12/06 05:52:02;;;;;;;40.00;24.63;;;;;;;;;;5032936;28;20192;-79
2020/12/06 05:54:28;;;;;;;32.93;21.10;;;;;;;;;;5033502;28;20171;-79
2020/12/06 05:56:53;;;;;;;37.77;23.57;;;;;;;;;;5033291;28;20250;-80
2020/12/06 05:59:22;;;;;;;34.50;23.07;;;;;;;;;;5035624;28;20189;-80
2020/12/06 06:01:52;;;;;;;34.23;24.33;;;;;;;;;;5036917;28;20200;-80
2020/12/06 06:04:19;;;;;;;37.97;23.97;;;;;;;;;;5036647;28;20187;-79
2020/12/06 06:06:45;;;;;;;34.53;21.93;;;;;;;;;;5037233;28;20187;-79
2020/12/06 06:09:11;;;;;;;32.77;22.53;;;;;;;;;;5036620;28;20522;-80
2020/12/06 06:11:38;;;;;;;33.63;22.77;;;;;;;;;;5036378;28;20227;-80
2020/12/06 06:14:05;;;;;;;32.87;23.63;;;;;;;;;;5036553;28;20173;-79
2020/12/06 06:16:31;;;;;;;29.00;19.93;;;;;;;;;;5036511;28;20173;-79
2020/12/06 06:18:57;;;;;;;30.27;20.73;;;;;;;;;;5035892;28;20558;-79
2020/12/06 06:21:27;;;;;;;36.17;23.57;;;;;;;;;;5036572;28;20685;-80
2020/12/06 06:23:53;;;;;;;31.63;22.70;;;;;;;;;;5036623;28;20172;-79
2020/12/06 06:26:19;;;;;;;29.40;22.30;;;;;;;;;;5036294;28;20314;-79
2020/12/06 06:28:45;;;;;;;35.53;23.13;;;;;;;;;;5036357;28;20171;-79
2020/12/06 06:31:11;;;;;;;33.17;22.07;;;;;;;;;;5036062;28;20259;-79
2020/12/06 06:33:38;;;;;;;26.57;18.27;;;;;;;;;;5036161;28;20183;-79
2020/12/06 06:36:04;;;;;;;30.40;21.80;;;;;;;;;;5036630;28;20264;-80
2020/12/06 06:38:36;;;;;;;31.53;22.90;;;;;;;;;;5035818;28;20180;-80
2020/12/06 06:41:02;;;;;;;27.37;18.97;;;;;;;;;;5035951;28;20254;-79
2020/12/06 06:43:27;;;;;;;33.27;21.93;;;;;;;;;;5035990;28;20620;-79
2020/12/06 06:45:54;;;;;;;32.13;22.50;;;;;;;;;;5035639;28;20684;-79
2020/12/06 06:48:21;;;;;;;32.23;21.77;;;;;;;;;;5035638;28;20180;-79
2020/12/06 06:50:50;;;;;;;32.37;21.83;;;;;;;;;;5035588;28;20512;-79
2020/12/06 06:53:16;;;;;;;24.93;17.70;;;;;;;;;;5036389;28;20172;-79
2020/12/06 06:55:51;;;;;;;30.73;19.63;;;;;;;;;;5035822;28;20168;-79
2020/12/06 06:58:22;;;;;;;29.03;21.07;;;;;;;;;;5035762;28;20243;-80
2020/12/06 07:00:48;;;;;;;29.00;20.40;;;;;;;;;;5035882;28;20659;-79
2020/12/06 07:03:13;;;;;;;25.90;19.33;;;;;;;;;;5035377;28;20263;-79
2020/12/06 07:05:39;;;;;;;39.70;28.23;;;;;;;;;;5035393;28;20168;-79
2020/12/06 07:08:09;;;;;;;32.67;24.27;;;;;;;;;;5035821;28;20259;-79
2020/12/06 07:10:36;;;;;;;25.93;19.83;;;;;;;;;;5036309;28;20263;-79
2020/12/06 07:13:04;;;;;;;27.73;20.40;;;;;;;;;;5053629;28;20164;-79
2020/12/06 07:15:30;;;;;;;29.30;21.07;;;;;;;;;;5059819;28;20153;-79
2020/12/06 07:17:55;;;;;;;30.67;21.90;;;;;;;;;;5060047;28;20159;-78
2020/12/06 07:20:22;;;;;;;30.20;19.20;;;;;;;;;;5039700;28;20258;-79
2020/12/06 07:22:48;;;;;;;26.53;20.53;;;;;;;;;;5038037;28;20188;-79
2020/12/06 07:25:14;;;;;;;27.90;19.33;;;;;;;;;;5036737;28;20165;-79
2020/12/06 07:27:39;;;;;;;25.90;18.50;;;;;;;;;;5034772;28;20683;-79
2020/12/06 07:30:06;;;;;;;29.23;20.80;;;;;;;;;;5035170;28;20211;-79
2020/12/06 07:32:31;;;;;;;29.40;21.43;;;;;;;;;;5034769;28;20176;-79
2020/12/06 07:34:57;;;;;;;29.43;22.03;;;;;;;;;;5034740;28;20520;-79
2020/12/06 07:37:22;;;;;;;30.77;21.03;;;;;;;;;;5034694;28;20200;-79
2020/12/06 07:39:48;;;;;;;28.67;21.00;;;;;;;;;;5034819;28;20619;-79
2020/12/06 07:42:24;;;;;;;31.77;22.33;;;;;;;;;;5034460;28;20223;-79
2020/12/06 07:44:50;;;;;;;31.57;22.80;;;;;;;;;;5035019;28;20168;-79
2020/12/06 07:47:16;;;;;;;28.90;21.70;;;;;;;;;;5034792;28;20535;-79
2020/12/06 07:49:42;;;;;;;28.47;20.77;;;;;;;;;;5035010;28;20171;-79
2020/12/06 07:52:11;;;;;;;31.10;22.10;;;;;;;;;;5034590;28;20176;-79
2020/12/06 07:54:37;;;;;;;29.20;22.03;;;;;;;;;;5034844;28;20176;-79
2020/12/06 07:57:02;;;;;;;42.30;27.37;;;;;;;;;;5034847;28;20691;-79
2020/12/06 07:59:28;;;;;;;43.30;29.47;;;;;;;;;;5034751;28;20187;-79
2020/12/06 08:01:54;;;;;;;35.80;27.33;;;;;;;;;;5034382;28;20192;-79
2020/12/06 08:04:27;;;;;;;27.93;20.37;;;;;;;;;;5035020;28;20203;-79
2020/12/06 08:06:54;;;;;;;29.97;23.53;;;;;;;;;;5034472;28;20173;-79
2020/12/06 08:09:21;;;;;;;26.80;19.27;;;;;;;;;;5034410;28;20619;-79
2020/12/06 08:11:49;;;;;;;27.40;20.77;;;;;;;;;;5034065;28;20185;-79
2020/12/06 08:14:18;;;;;;;27.37;20.37;;;;;;;;;;5034327;28;20177;-79
2020/12/06 08:16:56;;;;;;;28.03;20.90;;;;;;;;;;5034007;28;20173;-79
2020/12/06 08:19:25;;;;;;;25.10;19.40;;;;;;;;;;5034286;28;20561;-79
2020/12/06 08:21:50;;;;;;;25.13;19.57;;;;;;;;;;5033405;28;20196;-79
2020/12/06 08:24:19;;;;;;;24.73;17.93;;;;;;;;;;5034454;28;20190;-79
2020/12/06 08:26:45;;;;;;;26.57;19.93;;;;;;;;;;5033987;28;20188;-79
2020/12/06 08:29:10;;;;;;;27.80;20.60;;;;;;;;;;5034126;28;20179;-79
2020/12/06 08:31:36;;;;;;;23.90;19.57;;;;;;;;;;5034301;28;20199;-79
2020/12/06 08:34:11;;;;;;;26.50;20.50;;;;;;;;;;5033719;28;20631;-79
2020/12/06 08:36:36;;;;;;;26.83;20.43;;;;;;;;;;5033987;28;20176;-79
2020/12/06 08:39:02;;;;;;;28.90;19.60;;;;;;;;;;5034226;28;20169;-79
2020/12/06 08:41:27;;;;;;;27.77;21.23;;;;;;;;;;5033582;28;20200;-79
2020/12/06 08:43:52;;;;;;;27.40;20.70;;;;;;;;;;5033942;28;20180;-79
2020/12/06 08:46:19;;;;;;;26.47;20.57;;;;;;;;;;5033871;28;20168;-79
2020/12/06 08:48:44;;;;;;;25.80;20.03;;;;;;;;;;5033817;28;20173;-78
2020/12/06 08:51:28;;;;;;;28.83;22.63;;;;;;;;;;5033872;28;20654;-78
2020/12/06 08:53:54;;;;;;;28.83;23.30;;;;;;;;;;5034332;28;20659;-79
2020/12/06 08:56:29;;;;;;;26.93;21.90;;;;;;;;;;5034025;28;20203;-79
2020/12/06 08:58:55;;;;;;;32.23;24.93;;;;;;;;;;5034104;28;20231;-79
2020/12/06 09:01:20;;;;;;;26.20;20.67;;;;;;;;;;5033643;28;20753;-79
2020/12/06 09:03:45;;;;;;;37.90;26.37;;;;;;;;;;5033474;28;20177;-79
2020/12/06 09:06:17;;;;;;;22.97;16.20;;;;;;;;;;5034429;28;20173;-79
2020/12/06 09:08:43;;;;;;;31.27;23.10;;;;;;;;;;5033455;28;20172;-79
2020/12/06 09:11:15;;;;;;;25.30;20.30;;;;;;;;;;5033259;28;20180;-78
2020/12/06 09:13:40;;;;;;;30.67;22.27;;;;;;;;;;5033601;28;20168;-79
2020/12/06 09:16:05;;;;;;;26.37;20.53;;;;;;;;;;5033272;28;20196;-79
2020/12/06 09:18:30;;;;;;;35.10;24.03;;;;;;;;;;5033565;28;20565;-79
2020/12/06 09:20:56;;;;;;;25.20;19.47;;;;;;;;;;5033222;28;20214;-79
2020/12/06 09:23:21;;;;;;;29.50;23.17;;;;;;;;;;5033230;28;20213;-79
2020/12/06 09:25:46;;;;;;;32.87;22.87;;;;;;;;;;5033906;28;20207;-79
2020/12/06 09:28:11;;;;;;;25.83;19.23;;;;;;;;;;5033130;28;20298;-78
2020/12/06 09:30:37;;;;;;;27.07;18.67;;;;;;;;;;5032217;28;20551;-79
2020/12/06 09:33:03;;;;;;;30.20;22.67;;;;;;;;;;5033759;28;20310;-78
2020/12/06 09:35:28;;;;;;;27.83;21.70;;;;;;;;;;5037475;28;20165;-79
2020/12/06 09:37:53;;;;;;;34.73;24.53;;;;;;;;;;5037769;28;20176;-78
2020/12/06 09:40:18;;;;;;;29.10;22.83;;;;;;;;;;5037122;28;20197;-78
2020/12/06 09:42:44;;;;;;;23.03;16.47;;;;;;;;;;5037511;28;20655;-78
2020/12/06 09:45:09;;;;;;;25.43;20.03;;;;;;;;;;5037110;28;20165;-79
2020/12/06 09:47:34;;;;;;;28.30;21.30;;;;;;;;;;5037119;28;20577;-78
2020/12/06 09:49:59;;;;;;;34.03;25.80;;;;;;;;;;5036979;28;20203;-78
2020/12/06 09:52:25;;;;;;;41.00;29.73;;;;;;;;;;5034776;28;20585;-79
2020/12/06 09:54:50;;;;;;;22.27;17.93;;;;;;;;;;5024837;28;20177;-78
2020/12/06 09:57:15;;;;;;;24.17;17.30;;;;;;;;;;5017015;28;20315;-78
2020/12/06 09:59:41;;;;;;;23.37;17.63;;;;;;;;;;5016152;28;20181;-78
2020/12/06 10:02:06;;;;;;;30.23;20.90;;;;;;;;;;5016974;28;20664;-79
2020/12/06 10:04:31;;;;;;;26.50;20.03;;;;;;;;;;5017255;28;20173;-78
2020/12/06 10:06:58;;;;;;;50.13;34.83;;;;;;;;;;5016890;28;20169;-79
2020/12/06 10:09:24;;;;;;;34.77;25.50;;;;;;;;;;5016908;28;20176;-78
2020/12/06 10:11:49;;;;;;;24.20;18.30;;;;;;;;;;5017367;28;20173;-79
2020/12/06 10:14:14;;;;;;;25.23;19.63;;;;;;;;;;5016532;28;20252;-78
2020/12/06 10:16:39;;;;;;;35.83;25.43;;;;;;;;;;5017313;28;20177;-78
2020/12/06 10:19:05;;;;;;;24.23;17.30;;;;;;;;;;5016968;28;20509;-78
2020/12/06 10:21:30;;;;;;;56.47;31.03;;;;;;;;;;5015536;28;20221;-79
2020/12/06 10:23:55;;;;;;;65.17;40.50;;;;;;;;;;5033809;28;20199;-78
2020/12/06 10:26:21;;;;;;;30.07;22.77;;;;;;;;;;5035209;28;20197;-78
2020/12/06 10:28:46;;;;;;;24.23;18.63;;;;;;;;;;5035839;28;20527;-78
2020/12/06 10:31:11;;;;;;;27.67;19.57;;;;;;;;;;5036230;28;20219;-78
2020/12/06 10:33:36;;;;;;;46.90;31.00;;;;;;;;;;5027640;28;20692;-78
2020/12/06 10:36:02;;;;;;;44.00;31.63;;;;;;;;;;5016308;28;20182;-77
2020/12/06 10:38:27;;;;;;;55.50;32.50;;;;;;;;;;5016080;28;20169;-78
2020/12/06 10:40:52;;;;;;;39.97;27.33;;;;;;;;;;5015884;28;20193;-78
2020/12/06 10:43:17;;;;;;;32.27;24.30;;;;;;;;;;5030444;28;20237;-78
2020/12/06 10:45:43;;;;;;;24.83;20.97;;;;;;;;;;5035590;28;20525;-78
2020/12/06 10:48:08;;;;;;;25.80;21.27;;;;;;;;;;5034510;28;20180;-78
2020/12/06 10:50:34;;;;;;;44.40;32.17;;;;;;;;;;5035514;28;20175;-78
2020/12/06 10:52:59;;;;;;;34.40;26.00;;;;;;;;;;5035423;28;20188;-78
2020/12/06 10:55:25;;;;;;;32.50;25.70;;;;;;;;;;5035508;28;20172;-78
2020/12/06 10:57:51;;;;;;;102.67;50.60;;;;;;;;;;5035551;28;20235;-78
2020/12/06 11:00:16;;;;;;;38.93;27.10;;;;;;;;;;5035891;28;20194;-79
2020/12/06 11:02:41;;;;;;;27.50;21.17;;;;;;;;;;5035382;28;20619;-78
2020/12/06 11:05:06;;;;;;;29.93;23.90;;;;;;;;;;5034534;28;20181;-78
2020/12/06 11:07:32;;;;;;;23.87;19.00;;;;;;;;;;5035687;28;20196;-78
2020/12/06 11:09:57;;;;;;;25.23;19.67;;;;;;;;;;5035462;28;20612;-78
2020/12/06 11:12:22;;;;;;;24.43;19.70;;;;;;;;;;5034149;28;20181;-78
2020/12/06 11:14:47;;;;;;;29.87;24.73;;;;;;;;;;5035564;28;20604;-78
2020/12/06 11:17:13;;;;;;;127.40;63.70;;;;;;;;;;5035289;28;20187;-80
2020/12/06 11:19:38;;;;;;;30.73;24.50;;;;;;;;;;5035809;28;20176;-78
2020/12/06 11:22:03;;;;;;;28.23;24.03;;;;;;;;;;5035385;28;20639;-78
2020/12/06 11:24:29;;;;;;;24.43;21.37;;;;;;;;;;5035515;28;20299;-78
2020/12/06 11:26:54;;;;;;;26.23;20.27;;;;;;;;;;5034804;28;20271;-78
2020/12/06 11:29:19;;;;;;;24.33;20.67;;;;;;;;;;5034747;28;20256;-78
2020/12/06 11:31:47;;;;;;;26.50;19.77;;;;;;;;;;5035332;28;20187;-78
2020/12/06 11:34:13;;;;;;;26.07;22.17;;;;;;;;;;5033385;28;20203;-78
2020/12/06 11:36:38;;;;;;;40.60;27.53;;;;;;;;;;5035064;28;20603;-78
2020/12/06 11:39:03;;;;;;;107.80;58.23;;;;;;;;;;5034643;28;20591;-78
2020/12/06 11:41:29;;;;;;;24.37;19.47;;;;;;;;;;5034488;28;20211;-78
2020/12/06 11:43:54;;;;;;;19.93;17.77;;;;;;;;;;5034847;28;20172;-78
2020/12/06 11:46:19;;;;;;;20.07;14.37;;;;;;;;;;5034751;28;20173;-78
2020/12/06 11:48:45;;;;;;;23.10;18.50;;;;;;;;;;5034772;28;20525;-79
2020/12/06 11:51:10;;;;;;;26.97;22.43;;;;;;;;;;5035282;28;20176;-79
2020/12/06 11:53:36;;;;;;;25.10;19.87;;;;;;;;;;5034385;28;20164;-78
2020/12/06 11:56:02;;;;;;;23.17;19.50;;;;;;;;;;5034491;28;20650;-78
2020/12/06 11:58:28;;;;;;;43.70;26.83;;;;;;;;;;5034196;28;20228;-78
2020/12/06 12:00:53;;;;;;;62.13;36.17;;;;;;;;;;5034147;28;20199;-78
2020/12/06 12:03:18;;;;;;;21.10;16.40;;;;;;;;;;5028103;28;20523;-78
2020/12/06 12:05:44;;;;;;;20.40;15.07;;;;;;;;;;5014651;28;20201;-78
2020/12/06 12:08:09;;;;;;;21.67;18.63;;;;;;;;;;5014579;28;20509;-79
2020/12/06 12:10:34;;;;;;;27.90;18.93;;;;;;;;;;5014240;28;20177;-80
2020/12/06 12:12:59;;;;;;;27.33;19.60;;;;;;;;;;5013113;28;20211;-80
2020/12/06 12:15:25;;;;;;;21.63;18.27;;;;;;;;;;5012268;28;20621;-79
2020/12/06 12:17:50;;;;;;;23.30;18.80;;;;;;;;;;5014385;28;20172;-80
2020/12/06 12:20:15;;;;;;;24.03;19.07;;;;;;;;;;5022949;28;20184;-80
2020/12/06 12:22:41;;;;;;;61.60;37.07;;;;;;;;;;5014335;28;20523;-80
2020/12/06 12:25:06;;;;;;;31.17;20.27;;;;;;;;;;5014622;28;20643;-80
2020/12/06 12:27:31;;;;;;;24.33;18.67;;;;;;;;;;5016697;28;20196;-80
2020/12/06 12:29:57;;;;;;;20.90;16.20;;;;;;;;;;5019591;28;20184;-80
2020/12/06 12:32:22;;;;;;;21.07;15.60;;;;;;;;;;5016179;28;20871;-81
2020/12/06 12:34:47;;;;;;;20.57;17.30;;;;;;;;;;5009531;28;20181;-81
2020/12/06 12:37:16;;;;;;;22.47;16.67;;;;;;;;;;5010839;28;20173;-81
2020/12/06 12:39:42;;;;;;;22.53;17.80;;;;;;;;;;5010554;28;20263;-82
2020/12/06 12:42:07;;;;;;;22.70;17.77;;;;;;;;;;5013321;28;20704;-80
2020/12/06 12:44:32;;;;;;;43.23;26.70;;;;;;;;;;5014154;28;20674;-80
2020/12/06 12:46:58;;;;;;;26.40;18.80;;;;;;;;;;5013175;28;20181;-81
2020/12/06 12:49:24;;;;;;;26.60;18.43;;;;;;;;;;5011545;28;20173;-80
2020/12/06 12:51:53;;;;;;;21.70;17.70;;;;;;;;;;5023022;28;20211;-80
2020/12/06 12:54:18;;;;;;;21.37;14.57;;;;;;;;;;5023922;28;20533;-80
2020/12/06 12:56:43;;;;;;;23.53;18.50;;;;;;;;;;5021742;28;20175;-80
2020/12/06 12:59:10;;;;;;;30.40;22.73;;;;;;;;;;5022295;28;20207;-80
2020/12/06 13:01:35;;;;;;;33.17;22.63;;;;;;;;;;5024836;28;20294;-80
2020/12/06 13:04:00;;;;;;;34.10;21.53;;;;;;;;;;5025204;28;20212;-80
2020/12/06 13:06:26;;;;;;;50.17;31.20;;;;;;;;;;5028823;28;20239;-80
2020/12/06 13:08:51;;;;;;;33.03;23.20;;;;;;;;;;5028865;28;20196;-80
2020/12/06 13:11:21;;;;;;;23.80;17.57;;;;;;;;;;5031860;28;20566;-80
2020/12/06 13:13:46;;;;;;;19.80;16.13;;;;;;;;;;5029304;28;20522;-80
2020/12/06 13:16:12;;;;;;;21.20;17.40;;;;;;;;;;5025017;28;20180;-81
2020/12/06 13:18:37;;;;;;;25.70;18.53;;;;;;;;;;5021489;28;20173;-80
2020/12/06 13:21:02;;;;;;;22.67;16.73;;;;;;;;;;5029394;28;20207;-81
2020/12/06 13:23:27;;;;;;;22.47;16.23;;;;;;;;;;5024090;28;20176;-80
2020/12/06 13:25:53;;;;;;;24.50;18.33;;;;;;;;;;5021974;28;20286;-81
2020/12/06 13:28:18;;;;;;;31.30;20.50;;;;;;;;;;5019772;28;20524;-80
2020/12/06 13:30:43;;;;;;;20.07;16.27;;;;;;;;;;5020374;28;20215;-81
2020/12/06 13:33:09;;;;;;;24.60;18.17;;;;;;;;;;5025277;28;20340;-80
2020/12/06 13:35:34;;;;;;;25.37;19.27;;;;;;;;;;5027182;28;20619;-80
2020/12/06 13:37:59;;;;;;;20.93;16.67;;;;;;;;;;5026007;28;20271;-81
2020/12/06 13:40:25;;;;;;;31.47;20.53;;;;;;;;;;5025433;28;20212;-81
2020/12/06 13:42:50;;;;;;;26.33;19.27;;;;;;;;;;5030810;28;20180;-81
2020/12/06 13:45:15;;;;;;;24.83;18.40;;;;;;;;;;5023689;28;20178;-82
2020/12/06 13:47:41;;;;;;;32.27;22.03;;;;;;;;;;5024367;28;20616;-81
2020/12/06 13:50:06;;;;;;;27.17;17.87;;;;;;;;;;5024689;28;20260;-81
2020/12/06 13:52:31;;;;;;;28.93;20.43;;;;;;;;;;5022217;28;20173;-81
2020/12/06 13:54:57;;;;;;;27.13;20.27;;;;;;;;;;5022534;28;20173;-81
2020/12/06 13:57:22;;;;;;;26.03;19.03;;;;;;;;;;5024133;28;20263;-82
2020/12/06 13:59:47;;;;;;;28.97;19.67;;;;;;;;;;5022400;28;20686;-81
2020/12/06 14:02:13;;;;;;;23.30;17.03;;;;;;;;;;5020951;28;20208;-80
2020/12/06 14:04:38;;;;;;;23.07;18.07;;;;;;;;;;5021261;28;20177;-81
2020/12/06 14:07:03;;;;;;;25.87;18.60;;;;;;;;;;5022085;28;20182;-80